Terminal Aerodrome Forecast
Issued by NWS Tulsa, OK

Home | Current Version | Previous Version | Text Only | Print | Product List | Glossary On
Versions: 1 2 3 4 5 6 7 8 9 10 11 12 13 14 15 16 17
000
FTUS44 KTSA 040520
TAFFSM
TAF
KFSM 040520Z 0406/0506 VRB04KT P6SM BKN050
     FM040900 VRB03KT P6SM SCT020 SCT050
     FM041600 24005KT P6SM SCT050 SCT250
     FM050100 VRB04KT P6SM FEW250=

USA.gov is the U.S. government's official web portal to all federal, state and local government web resources and services.